Time;durP1;ratioP1;P1;durP2;ratioP2;P2;SDS_P1;SDS_P2;PMS_P1;PMS_P2;Temp;Humidity;BMP_temperature;BMP_pressure;BME280_temperature;BME280_humidity;BME280_pressure;Samples;Min_cycle;Max_cycle;Signal;HPM_P1;HPM_P2
2023/04/14 00:00:32;;;;;;;8.35;2.00;;;5.80;99.90;;;5.00;100.00;96419.81;5047958;28;20289;-39
2023/04/14 00:02:59;;;;;;;4.95;1.50;;;5.70;99.90;;;4.97;100.00;96427.72;5050999;28;21561;-38
2023/04/14 00:05:33;;;;;;;5.03;2.00;;;5.70;99.90;;;4.97;100.00;96415.53;5054408;28;20032;-39
2023/04/14 00:07:59;;;;;;;6.25;1.70;;;5.70;99.90;;;4.92;100.00;96409.59;5052743;28;20042;-38
2023/04/14 00:10:25;;;;;;;7.53;2.28;;;5.70;99.90;;;4.91;100.00;96404.41;5054253;28;20115;-38
2023/04/14 00:12:51;;;;;;;5.57;1.63;;;5.70;99.90;;;4.64;100.00;96361.69;5046943;28;20391;-38
2023/04/14 00:15:17;;;;;;;4.57;1.80;;;5.60;99.90;;;4.84;100.00;96398.50;5050347;28;20032;-39
2023/04/14 00:17:44;;;;;;;7.93;1.77;;;5.60;99.90;;;4.81;100.00;96395.13;5050368;28;20040;-39
2023/04/14 00:20:10;;;;;;;4.80;1.60;;;5.60;99.90;;;4.86;100.00;96401.09;5047126;28;20031;-39
2023/04/14 00:22:35;;;;;;;5.07;2.03;;;5.60;99.90;;;4.78;100.00;96390.88;5047363;28;20024;-39
2023/04/14 00:25:01;;;;;;;5.97;1.75;;;5.60;99.90;;;4.76;100.00;96409.19;5044677;28;21541;-39
2023/04/14 00:27:28;;;;;;;7.95;2.13;;;5.50;99.90;;;4.58;100.00;96397.53;5043835;28;20032;-39
2023/04/14 00:29:53;;;;;;;8.95;1.90;;;5.40;99.90;;;4.53;100.00;96409.88;5042796;28;20048;-39
2023/04/14 00:32:19;;;;;;;6.28;1.80;;;5.30;99.90;;;4.41;100.00;96399.78;5050668;28;20036;-39
2023/04/14 00:34:45;;;;;;;8.93;1.67;;;5.20;99.90;;;4.47;100.00;96409.19;5048055;28;20025;-39
2023/04/14 00:37:11;;;;;;;2.97;1.30;;;5.20;99.90;;;4.43;100.00;96410.19;5048950;28;20032;-39
2023/04/14 00:39:36;;;;;;;3.75;1.63;;;5.10;99.90;;;4.34;100.00;96409.56;5044486;28;20028;-39
2023/04/14 00:42:03;;;;;;;5.40;1.70;;;5.10;99.90;;;4.29;100.00;96421.00;5045940;28;20036;-39
2023/04/14 00:44:29;;;;;;;10.55;2.00;;;5.00;99.90;;;4.18;100.00;96418.69;5046535;28;20035;-39
2023/04/14 00:46:55;;;;;;;5.32;1.83;;;4.90;99.90;;;4.10;100.00;96418.91;5045848;28;20035;-39
2023/04/14 00:49:21;;;;;;;3.42;1.67;;;4.90;99.90;;;4.01;100.00;96408.72;5049450;28;20185;-39
2023/04/14 00:51:47;;;;;;;8.85;1.90;;;4.80;99.90;;;4.04;100.00;96420.81;5046542;28;20161;-39
2023/04/14 00:54:17;;;;;;;4.55;1.80;;;4.80;99.90;;;4.00;100.00;96422.63;5042238;28;20492;-39
2023/04/14 00:56:44;;;;;;;9.07;2.08;;;4.80;99.90;;;3.99;100.00;96424.41;5049211;28;20465;-39
2023/04/14 00:59:12;;;;;;;4.90;1.50;;;4.80;99.90;;;3.97;100.00;96431.41;5043514;28;20566;-39
2023/04/14 01:01:39;;;;;;;5.00;1.52;;;4.70;99.90;;;3.89;100.00;96422.91;5049521;28;20101;-39
2023/04/14 01:04:05;;;;;;;7.00;2.00;;;4.70;99.90;;;3.94;100.00;96436.69;5049634;28;20029;-39
2023/04/14 01:06:32;;;;;;;5.30;1.63;;;4.70;99.90;;;3.86;100.00;96424.75;5049740;28;20115;-39
2023/04/14 01:08:58;;;;;;;5.60;1.70;;;4.70;99.90;;;3.93;100.00;96436.75;5039073;28;20033;-39
2023/04/14 01:11:44;;;;;;;8.68;2.10;;;4.70;99.90;;;3.88;100.00;96442.09;5063201;28;20055;-39
2023/04/14 01:14:46;;;;;;;9.35;2.67;;;4.60;99.90;;;3.77;100.00;96446.75;5047690;28;20036;-39
2023/04/14 01:17:43;;;;;;;5.93;1.73;;;4.60;99.90;;;3.77;100.00;96454.56;5045348;28;20098;-39
2023/04/14 01:20:25;;;;;;;5.68;1.95;;;4.50;99.90;;;3.71;100.00;96452.09;5049589;28;20043;-39
2023/04/14 01:23:06;;;;;;;4.78;1.40;;;4.50;99.90;;;3.66;100.00;96461.78;5042462;28;20035;-39
2023/04/14 01:26:01;;;;;;;6.97;2.00;;;4.40;99.90;;;3.61;100.00;96459.28;5047491;28;20127;-39
2023/04/14 01:29:01;;;;;;;7.22;1.77;;;4.40;99.90;;;3.53;100.00;96461.22;5048365;28;20024;-39
2023/04/14 01:31:52;;;;;;;6.22;1.73;;;4.30;99.90;;;3.47;100.00;96466.59;5047291;28;20055;-39
2023/04/14 01:34:32;;;;;;;4.15;1.50;;;4.20;99.90;;;3.37;100.00;96466.78;5064230;28;20067;-39
2023/04/14 01:37:08;;;;;;;7.53;1.60;;;4.10;99.90;;;3.38;100.00;96467.66;5047676;28;20504;-39
2023/04/14 01:39:38;;;;;;;2.90;1.52;;;4.10;99.90;;;3.34;100.00;96472.09;5049649;28;20082;-39
2023/04/14 01:42:09;;;;;;;6.45;1.73;;;4.10;99.90;;;3.32;100.00;96473.00;5048647;28;20067;-39
2023/04/14 01:44:36;;;;;;;5.23;1.40;;;4.00;99.90;;;3.29;100.00;96460.91;5051625;28;20503;-39
2023/04/14 01:47:07;;;;;;;4.40;1.63;;;4.00;99.90;;;3.27;100.00;96474.84;5049841;28;20036;-39
2023/04/14 01:49:37;;;;;;;5.13;1.73;;;4.00;99.90;;;3.24;100.00;96481.84;5051628;28;20149;-39
2023/04/14 01:52:07;;;;;;;5.13;1.73;;;3.90;99.90;;;3.22;100.00;96482.78;5049645;28;21547;-39
2023/04/14 01:54:35;;;;;;;3.85;1.83;;;3.90;99.90;;;3.03;100.00;96453.66;5047388;28;20116;-39
2023/04/14 01:57:03;;;;;;;4.97;1.80;;;3.90;99.90;;;3.19;100.00;96486.31;5047867;28;20075;-39
2023/04/14 01:59:31;;;;;;;3.70;1.70;;;3.90;99.90;;;3.11;100.00;96480.41;5050128;28;20028;-38
2023/04/14 02:02:00;;;;;;;4.53;1.92;;;3.80;99.90;;;3.08;100.00;96488.28;5047233;28;20033;-39
2023/04/14 02:04:29;;;;;;;3.45;1.60;;;3.80;99.90;;;3.03;100.00;96493.63;5053839;28;20042;-38
2023/04/14 02:06:58;;;;;;;4.43;1.50;;;3.70;99.90;;;3.01;100.00;96484.97;5052761;28;20075;-38
2023/04/14 02:09:27;;;;;;;5.35;1.60;;;3.70;99.90;;;2.99;100.00;96485.91;5045418;28;20056;-38
2023/04/14 02:11:54;;;;;;;6.28;1.83;;;3.70;99.90;;;2.95;100.00;96479.91;5043646;28;20028;-38
2023/04/14 02:14:22;;;;;;;5.40;1.50;;;3.70;99.90;;;2.95;100.00;96489.47;5050437;28;20075;-38
2023/04/14 02:17:10;;;;;;;6.53;2.05;;;3.70;99.90;;;2.90;100.00;96479.13;5046729;28;20025;-39
2023/04/14 02:19:36;;;;;;;6.00;2.00;;;3.70;99.90;;;2.92;100.00;96494.72;5045947;28;20472;-39
2023/04/14 02:22:02;;;;;;;6.18;2.20;;;3.60;99.90;;;2.91;100.00;96479.97;5047081;28;20035;-39
2023/04/14 02:24:28;;;;;;;8.45;2.30;;;3.60;99.90;;;2.90;100.00;96488.69;5043764;28;20029;-39
2023/04/14 02:27:02;;;;;;;6.32;2.08;;;3.60;99.90;;;2.86;100.00;96480.09;5046121;28;20043;-39
2023/04/14 02:29:28;;;;;;;3.58;1.55;;;3.60;99.90;;;2.88;100.00;96488.72;5041069;28;20055;-39
2023/04/14 02:32:04;;;;;;;5.30;1.80;;;3.60;99.90;;;2.88;100.00;96480.06;5035719;28;20044;-39
2023/04/14 02:34:34;;;;;;;5.22;1.55;;;3.60;99.90;;;2.88;100.00;96483.53;5037369;28;20072;-39
2023/04/14 02:37:08;;;;;;;3.45;1.33;;;3.60;99.90;;;2.88;100.00;96485.28;5055281;28;20136;-39
2023/04/14 02:39:57;;;;;;;6.15;1.90;;;3.60;99.90;;;2.86;100.00;96483.56;5047857;28;20024;-39
2023/04/14 02:42:27;;;;;;;5.85;1.65;;;3.60;99.90;;;2.84;100.00;96490.53;5045657;28;20026;-39
2023/04/14 02:45:05;;;;;;;8.98;1.85;;;3.60;99.90;;;2.81;100.00;96492.34;5046342;28;20058;-39
2023/04/14 02:47:40;;;;;;;4.80;1.80;;;3.50;99.90;;;2.71;100.00;96473.47;5045599;28;20030;-39
2023/04/14 02:50:11;;;;;;;8.40;2.05;;;3.50;99.90;;;2.76;100.00;96482.03;5051362;22;20630;-51
2023/04/14 02:52:39;;;;;;;2.90;1.30;;;3.50;99.90;;;2.75;100.00;96487.28;5027803;28;20040;-49
2023/04/14 02:55:06;;;;;;;6.57;1.85;;;3.50;99.90;;;2.76;100.00;96484.63;5031739;28;20348;-53
2023/04/14 02:57:33;;;;;;;4.03;1.75;;;3.50;99.90;;;2.76;100.00;96489.81;5025351;28;20029;-52
2023/04/14 02:59:59;;;;;;;5.05;1.45;;;3.50;99.90;;;2.76;100.00;96476.81;5030333;28;20048;-50
2023/04/14 03:02:26;;;;;;;4.53;1.52;;;3.50;99.90;;;2.80;100.00;96480.22;5027030;28;20025;-51
2023/04/14 03:04:52;;;;;;;7.63;1.92;;;3.50;99.90;;;2.84;100.00;96482.72;5025060;28;20404;-51
2023/04/14 03:07:20;;;;;;;5.72;1.75;;;3.60;99.90;;;2.74;100.00;96465.56;5031643;28;20037;-50
2023/04/14 03:09:49;;;;;;;5.35;1.50;;;3.60;99.90;;;2.87;100.00;96492.22;5023862;28;20055;-49
2023/04/14 03:12:16;;;;;;;2.83;1.50;;;3.60;99.90;;;2.90;100.00;96496.50;5026567;28;20033;-51
2023/04/14 03:14:43;;;;;;;5.95;1.67;;;3.60;99.90;;;2.88;100.00;96493.94;5023257;28;20226;-51
2023/04/14 03:17:10;;;;;;;3.58;1.60;;;3.60;99.90;;;2.84;100.00;96487.94;5024319;28;20090;-48
2023/04/14 03:19:40;;;;;;;6.05;1.58;;;3.60;99.90;;;2.78;100.00;96489.81;5027272;28;20042;-51
2023/04/14 03:22:09;;;;;;;4.72;1.58;;;3.50;99.90;;;2.71;100.00;96486.50;5028039;28;20100;-51
2023/04/14 03:24:37;;;;;;;5.57;1.73;;;3.50;99.90;;;2.64;100.00;96484.91;5024061;28;20029;-51
2023/04/14 03:27:21;;;;;;;4.38;1.60;;;3.40;99.90;;;2.58;100.00;96487.59;5030824;28;20056;-51
2023/04/14 03:29:51;;;;;;;4.65;1.50;;;3.40;99.90;;;2.52;100.00;96492.94;5016159;28;20828;-50
2023/04/14 03:32:18;;;;;;;5.38;1.65;;;3.30;99.90;;;2.47;100.00;96488.66;5015670;28;20041;-50
2023/04/14 03:34:57;;;;;;;6.85;1.92;;;3.30;99.90;;;2.46;100.00;96491.31;5014117;28;20043;-48
2023/04/14 03:37:26;;;;;;;4.95;1.58;;;3.20;99.90;;;2.47;100.00;96498.22;5026645;28;20025;-51
2023/04/14 03:39:53;;;;;;;3.78;1.50;;;3.20;99.90;;;2.46;100.00;96484.38;5005114;28;20043;-50
2023/04/14 03:42:23;;;;;;;3.85;1.73;;;3.20;99.90;;;2.47;100.00;96485.22;5007200;28;20555;-50
2023/04/14 03:44:52;;;;;;;8.05;2.17;;;3.20;99.90;;;2.54;100.00;96485.97;5008621;28;20056;-51
2023/04/14 03:47:22;;;;;;;5.65;2.03;;;3.30;99.90;;;2.56;100.00;96476.38;5009420;28;20028;-51
2023/04/14 03:49:49;;;;;;;4.88;2.00;;;3.30;99.90;;;2.62;100.00;96478.84;5007809;28;20100;-49
2023/04/14 03:52:16;;;;;;;8.15;2.08;;;3.40;99.90;;;2.62;100.00;96473.63;5007577;28;20598;-50
2023/04/14 03:54:44;;;;;;;7.28;1.65;;;3.30;99.90;;;2.59;100.00;96471.13;5019736;28;20577;-51
2023/04/14 03:57:13;;;;;;;6.47;1.80;;;3.30;99.90;;;2.47;100.00;96465.25;5012894;28;20239;-53
2023/04/14 03:59:39;;;;;;;10.63;2.00;;;3.30;99.90;;;2.50;100.00;96474.75;5011100;28;20048;-51
2023/04/14 04:02:06;;;;;;;5.75;1.67;;;3.20;99.90;;;2.46;100.00;96481.78;5009018;28;20504;-52
2023/04/14 04:04:34;;;;;;;10.73;2.10;;;3.20;99.90;;;2.29;100.00;96452.59;5010536;28;20083;-49
2023/04/14 04:07:00;;;;;;;7.32;2.00;;;3.20;99.90;;;2.38;100.00;96480.19;5010050;28;20316;-51
2023/04/14 04:09:28;;;;;;;8.82;2.05;;;3.20;99.90;;;2.31;100.00;96469.03;5010149;28;20037;-51
2023/04/14 04:11:58;;;;;;;4.95;1.90;;;3.10;99.90;;;2.29;100.00;96483.81;5011752;28;20985;-47
2023/04/14 04:14:26;;;;;;;10.43;2.03;;;3.10;99.90;;;2.28;100.00;96482.13;5009265;28;20033;-51
2023/04/14 04:16:54;;;;;;;7.50;2.00;;;3.10;99.90;;;2.21;100.00;96485.72;5027527;28;20174;-51
2023/04/14 04:19:21;;;;;;;6.03;2.10;;;3.00;99.90;;;2.15;100.00;96486.69;5016571;28;20056;-52
2023/04/14 04:21:56;;;;;;;10.85;1.88;;;3.00;99.90;;;2.10;100.00;96476.38;5007345;28;20025;-50
2023/04/14 04:24:23;;;;;;;5.70;1.92;;;2.90;99.90;;;2.05;100.00;96483.41;5034456;28;24180;-52
2023/04/14 04:26:51;;;;;;;8.32;2.10;;;2.90;99.90;;;2.04;100.00;96476.47;5015935;28;20044;-52
2023/04/14 04:29:17;;;;;;;7.18;1.52;;;2.90;99.90;;;2.03;100.00;96486.94;5017538;28;20552;-52
2023/04/14 04:31:43;;;;;;;5.07;1.70;;;2.80;99.90;;;1.98;100.00;96478.34;5015666;28;20076;-51
2023/04/14 04:34:10;;;;;;;8.23;2.17;;;2.80;99.90;;;1.68;100.00;96445.03;5015161;28;20568;-49
2023/04/14 04:36:37;;;;;;;8.95;2.10;;;2.80;99.90;;;1.91;100.00;96481.03;5017402;28;20497;-52
2023/04/14 04:39:03;;;;;;;6.65;1.70;;;2.80;99.90;;;1.89;100.00;96489.75;5016137;28;20048;-51
2023/04/14 04:41:29;;;;;;;8.30;1.85;;;2.70;99.90;;;1.88;100.00;96493.22;5010648;28;20032;-49
2023/04/14 04:43:55;;;;;;;6.90;1.75;;;2.70;99.90;;;1.88;100.00;96490.63;5017774;28;20043;-49
2023/04/14 04:46:42;;;;;;;4.80;1.92;;;2.70;99.90;;;1.85;100.00;96478.56;5027685;28;20058;-51
2023/04/14 04:49:07;;;;;;;4.28;1.35;;;2.70;99.90;;;1.88;100.00;96488.03;5020268;28;20986;-51
2023/04/14 04:51:33;;;;;;;4.07;1.90;;;2.70;99.90;;;1.88;100.00;96498.44;5011836;28;23087;-49
2023/04/14 04:53:59;;;;;;;7.57;1.70;;;2.60;99.90;;;1.92;100.00;96502.72;5007951;28;20294;-52
2023/04/14 04:56:25;;;;;;;8.10;2.20;;;2.70;99.90;;;1.98;100.00;96504.34;5016214;28;20041;-51
2023/04/14 04:58:51;;;;;;;5.90;1.98;;;2.70;99.90;;;2.03;100.00;96497.31;5012834;28;20496;-51
2023/04/14 05:01:18;;;;;;;5.00;1.88;;;2.80;99.90;;;2.06;100.00;96503.34;5009101;28;20036;-48
2023/04/14 05:03:44;;;;;;;8.55;1.83;;;2.80;99.90;;;2.08;100.00;96505.88;5012222;28;20029;-51
2023/04/14 05:06:10;;;;;;;7.28;1.70;;;2.80;99.90;;;2.12;100.00;96504.97;5014782;28;20033;-53
2023/04/14 05:08:36;;;;;;;6.38;1.55;;;2.90;99.90;;;2.16;100.00;96506.63;5014659;28;20406;-51
2023/04/14 05:11:02;;;;;;;4.25;1.58;;;2.90;99.90;;;2.22;100.00;96513.44;5013981;28;20032;-52
2023/04/14 05:13:27;;;;;;;4.97;1.60;;;3.00;99.90;;;2.29;100.00;96512.44;5012599;28;20029;-51
2023/04/14 05:16:06;;;;;;;7.45;1.50;;;3.00;99.90;;;2.36;100.00;96510.59;5013766;28;20056;-51
2023/04/14 05:18:33;;;;;;;4.97;1.40;;;3.10;99.90;;;2.44;100.00;96517.38;5009441;28;20067;-52
2023/04/14 05:21:07;;;;;;;9.40;1.92;;;3.20;99.90;;;2.53;100.00;96516.34;5018489;28;20032;-50
2023/04/14 05:23:36;;;;;;;5.60;1.50;;;3.20;99.90;;;2.66;100.00;96510.00;5011394;28;20090;-53
2023/04/14 05:26:04;;;;;;;3.25;1.63;;;3.30;99.90;;;2.81;100.00;96518.38;5017552;28;20041;-52
2023/04/14 05:28:30;;;;;;;4.90;1.80;;;3.50;99.90;;;2.89;100.00;96513.91;5011298;28;20432;-50
2023/04/14 05:30:55;;;;;;;5.45;2.40;;;3.60;99.90;;;2.96;100.00;96512.00;5009285;28;20064;-51
2023/04/14 05:33:21;;;;;;;5.32;2.03;;;3.70;99.90;;;3.01;100.00;96510.16;5009136;28;20041;-53
2023/04/14 05:35:49;;;;;;;9.57;1.85;;;3.70;99.90;;;3.05;100.00;96525.69;5010575;28;20169;-53
2023/04/14 05:38:16;;;;;;;7.45;2.17;;;3.80;99.90;;;3.09;100.00;96523.88;5005530;28;20094;-51
2023/04/14 05:40:41;;;;;;;4.97;1.50;;;3.80;99.90;;;3.14;100.00;96519.44;5006610;28;20063;-52
2023/04/14 05:43:07;;;;;;;4.28;1.48;;;3.90;99.90;;;3.21;100.00;96526.25;5001907;28;20049;-51
2023/04/14 05:45:33;;;;;;;3.55;1.38;;;4.00;99.90;;;3.27;100.00;96533.06;5012813;28;20047;-49
2023/04/14 05:47:59;;;;;;;5.18;1.75;;;4.00;99.90;;;3.33;100.00;96537.28;5013067;28;20316;-52
2023/04/14 05:50:24;;;;;;;3.15;1.40;;;4.10;99.90;;;3.34;100.00;96539.84;5016787;28;20224;-51
2023/04/14 05:52:50;;;;;;;3.70;1.48;;;4.10;99.90;;;3.29;100.00;96520.00;5011636;28;20037;-53
2023/04/14 05:55:17;;;;;;;5.53;1.50;;;4.20;99.90;;;3.50;100.00;96548.19;5005911;28;20037;-52
2023/04/14 05:57:43;;;;;;;7.07;1.70;;;4.20;99.90;;;3.56;100.00;96549.78;5008557;28;20032;-50
2023/04/14 06:00:11;;;;;;;7.85;1.60;;;4.30;99.90;;;3.58;100.00;96551.47;5012898;28;20036;-53
2023/04/14 06:02:37;;;;;;;5.15;1.70;;;4.40;99.90;;;3.70;100.00;96562.53;5006808;28;20052;-52
2023/04/14 06:05:06;;;;;;;7.97;1.70;;;4.40;99.90;;;3.72;100.00;96556.38;5012930;28;20037;-51
2023/04/14 06:07:35;;;;;;;6.00;1.92;;;4.50;99.90;;;3.84;100.00;96563.06;5009297;28;21587;-53
2023/04/14 06:10:01;;;;;;;8.55;2.03;;;4.60;99.90;;;3.93;100.00;96565.44;5006666;28;20746;-54
2023/04/14 06:12:27;;;;;;;7.07;2.22;;;4.70;99.90;;;4.03;100.00;96566.06;5016032;28;20341;-51
2023/04/14 06:14:54;;;;;;;5.40;2.10;;;4.80;99.90;;;4.09;100.00;96559.84;5006940;28;20025;-52
2023/04/14 06:17:21;;;;;;;4.25;1.80;;;4.80;99.90;;;4.24;100.00;96563.84;5010678;28;20412;-48
2023/04/14 06:19:47;;;;;;;5.88;2.00;;;4.90;99.90;;;4.33;100.00;96567.06;5013788;28;20037;-51
2023/04/14 06:22:20;;;;;;;7.28;1.88;;;5.00;99.90;;;4.40;100.00;96560.78;5014235;28;20787;-48
2023/04/14 06:24:46;;;;;;;4.57;1.80;;;5.10;99.90;;;4.50;100.00;96560.53;5016643;28;20236;-49
2023/04/14 06:27:12;;;;;;;6.75;1.60;;;5.20;99.90;;;4.57;100.00;96562.94;5016990;28;20584;-47
2023/04/14 06:29:38;;;;;;;4.20;1.60;;;5.30;99.90;;;4.65;100.00;96560.16;5016198;28;21801;-51
2023/04/14 06:32:03;;;;;;;5.55;1.50;;;5.40;99.90;;;4.73;100.00;96560.78;5016931;28;20514;-51
2023/04/14 06:34:29;;;;;;;4.20;1.52;;;5.40;99.90;;;4.78;100.00;96561.50;5014802;28;20041;-48
2023/04/14 06:36:55;;;;;;;4.88;2.33;;;5.50;99.90;;;4.88;100.00;96566.47;5019142;28;20041;-50
2023/04/14 06:39:21;;;;;;;4.82;1.65;;;5.60;99.90;;;4.92;100.00;96561.13;5013082;28;20052;-51
2023/04/14 06:41:47;;;;;;;8.18;2.13;;;5.70;99.90;;;5.00;100.00;96563.53;5016161;28;20561;-53
2023/04/14 06:44:13;;;;;;;4.72;1.60;;;5.70;99.90;;;5.09;100.00;96560.66;5003159;28;20775;-49
2023/04/14 06:46:39;;;;;;;5.00;1.50;;;5.80;99.90;;;5.18;100.00;96556.06;5010491;28;20040;-48
2023/04/14 06:49:06;;;;;;;5.25;1.80;;;5.90;99.90;;;5.30;100.00;96553.09;5011501;28;20076;-47
2023/04/14 06:51:32;;;;;;;3.40;1.50;;;6.00;99.90;;;5.34;100.00;96554.72;5015194;28;20064;-49
2023/04/14 06:53:58;;;;;;;4.75;1.75;;;6.10;99.90;;;5.41;100.00;96558.00;5010405;28;20037;-49
2023/04/14 06:56:23;;;;;;;4.63;2.05;;;6.10;99.90;;;5.43;100.00;96554.44;5007425;28;20037;-49
2023/04/14 06:58:49;;;;;;;4.43;1.60;;;6.20;99.90;;;5.55;100.00;96553.22;5011071;28;20048;-48
2023/04/14 07:01:15;;;;;;;5.47;1.58;;;6.20;99.90;;;5.61;100.00;96545.16;5010247;28;20036;-49
2023/04/14 07:03:42;;;;;;;11.00;2.13;;;6.40;99.90;;;5.73;100.00;96544.78;5006100;28;20510;-49
2023/04/14 07:06:10;;;;;;;3.80;1.70;;;6.40;99.90;;;5.83;100.00;96537.53;5013292;28;20041;-49
2023/04/14 07:08:37;;;;;;;6.32;1.75;;;6.50;99.90;;;5.89;100.00;96541.69;5018691;28;20033;-47
2023/04/14 07:11:07;;;;;;;6.22;1.80;;;6.60;99.90;;;5.91;100.00;96540.72;5019298;28;20032;-49
2023/04/14 07:13:33;;;;;;;9.13;2.20;;;6.70;99.90;;;6.04;100.00;96541.22;5024053;28;20051;-49
2023/04/14 07:16:01;;;;;;;7.28;1.67;;;6.80;99.90;;;6.13;100.00;96539.22;5014333;28;20052;-48
2023/04/14 07:18:26;;;;;;;9.68;1.70;;;6.80;99.90;;;6.10;100.00;96527.06;5018571;28;20033;-48
2023/04/14 07:20:53;;;;;;;8.38;1.65;;;6.90;99.90;;;6.23;100.00;96535.41;5017433;28;20435;-49
2023/04/14 07:23:19;;;;;;;6.13;2.00;;;6.90;99.90;;;6.31;100.00;96528.13;5027967;28;20689;-50
2023/04/14 07:25:51;;;;;;;4.85;1.30;;;7.00;99.90;;;6.57;100.00;96526.34;5019491;28;20052;-50
2023/04/14 07:28:17;;;;;;;5.72;1.58;;;7.20;99.90;;;6.57;100.00;96513.25;5017669;28;20163;-46
2023/04/14 07:30:43;;;;;;;6.35;1.30;;;7.30;99.90;;;6.72;100.00;96522.38;5019016;28;20053;-48
2023/04/14 07:33:09;;;;;;;4.97;1.33;;;7.40;99.90;;;6.79;100.00;96500.28;5006579;28;20056;-50
2023/04/14 07:35:34;;;;;;;7.65;1.70;;;7.50;99.90;;;7.01;100.00;96519.53;5007878;28;20522;-52
2023/04/14 07:38:00;;;;;;;6.75;1.35;;;7.60;99.90;;;7.19;100.00;96518.00;5014553;28;20607;-48
2023/04/14 07:40:26;;;;;;;5.07;1.50;;;7.80;99.90;;;7.29;100.00;96521.13;5019224;28;20036;-52
2023/04/14 07:42:51;;;;;;;7.78;1.60;;;7.90;99.90;;;7.36;100.00;96524.38;5013135;28;20123;-50
2023/04/14 07:45:17;;;;;;;6.13;1.42;;;8.10;99.90;;;7.50;100.00;96521.22;5015521;28;20037;-50
2023/04/14 07:47:43;;;;;;;10.07;1.70;;;8.10;99.90;;;7.72;100.00;96524.72;5014412;28;20029;-51
2023/04/14 07:50:09;;;;;;;9.63;1.73;;;8.30;99.90;;;7.77;100.00;96525.41;5021960;28;20025;-52
2023/04/14 07:52:35;;;;;;;5.05;1.60;;;8.40;99.90;;;7.79;100.00;96528.81;5027531;28;20029;-54
2023/04/14 07:55:02;;;;;;;6.13;1.35;;;8.40;99.90;;;7.76;100.00;96523.66;5007006;28;20040;-52
2023/04/14 07:57:28;;;;;;;2.92;1.05;;;8.40;99.90;;;7.87;100.00;96527.66;5021425;28;20415;-51
2023/04/14 07:59:53;;;;;;;7.38;1.55;;;8.50;99.90;;;8.02;100.00;96522.63;5011372;28;20039;-53
2023/04/14 08:02:21;;;;;;;5.20;1.40;;;8.60;99.90;;;8.16;100.00;96521.19;5011479;28;20489;-53
2023/04/14 08:04:46;;;;;;;4.63;1.42;;;8.70;99.90;;;8.26;100.00;96524.31;5002578;28;20040;-52
2023/04/14 08:07:12;;;;;;;4.43;1.17;;;8.80;99.90;;;8.54;100.00;96535.41;5003307;28;20040;-52
2023/04/14 08:09:38;;;;;;;5.53;1.30;;;9.00;99.90;;;8.66;100.00;96535.78;5006861;28;20476;-52
2023/04/14 08:12:04;;;;;;;3.53;0.98;;;9.20;99.90;;;8.72;97.61;96538.13;5016042;28;21783;-51
2023/04/14 08:14:29;;;;;;;4.55;1.15;;;9.30;99.90;;;8.64;88.59;96538.47;5011487;28;20106;-52
2023/04/14 08:16:55;;;;;;;5.40;1.30;;;9.30;99.90;;;8.70;95.78;96534.72;5023845;28;20091;-50
2023/04/14 08:19:21;;;;;;;6.10;1.25;;;9.20;99.90;;;8.84;88.83;96534.13;5025160;28;20711;-51
2023/04/14 08:21:46;;;;;;;8.00;1.40;;;9.30;99.90;;;8.83;93.20;96529.78;5012190;28;20124;-50
2023/04/14 08:24:12;;;;;;;8.63;1.30;;;9.40;99.90;;;8.97;92.69;96530.91;5007986;28;20135;-50
2023/04/14 08:26:39;;;;;;;4.93;1.30;;;9.50;99.90;;;8.88;84.52;96539.22;5026279;28;20042;-49
2023/04/14 08:29:04;;;;;;;12.40;1.67;;;9.50;99.90;;;8.84;92.26;96531.50;5019132;28;20033;-51
2023/04/14 08:31:31;;;;;;;5.38;1.08;;;9.50;99.90;;;8.95;87.87;96540.66;5013777;28;20025;-52
2023/04/14 08:33:57;;;;;;;5.90;1.50;;;9.50;99.90;;;8.88;84.74;96536.56;5009158;28;20103;-49
2023/04/14 08:36:24;;;;;;;5.13;1.30;;;9.50;99.90;;;8.98;93.53;96542.28;5017612;28;22376;-49
2023/04/14 08:38:49;;;;;;;5.90;1.45;;;9.50;99.90;;;9.10;94.42;96536.47;5015105;28;20044;-50
2023/04/14 08:41:19;;;;;;;6.82;1.70;;;9.60;99.90;;;9.17;91.41;96535.28;5008579;28;20041;-49
2023/04/14 08:43:45;;;;;;;4.28;1.42;;;9.80;99.90;;;9.28;91.27;96537.41;5013516;28;20052;-51
2023/04/14 08:46:13;;;;;;;3.88;1.25;;;9.80;99.90;;;9.41;93.98;96531.59;5030476;28;20044;-50
2023/04/14 08:48:40;;;;;;;5.75;1.58;;;9.90;99.90;;;9.27;86.13;96526.97;5025649;28;20025;-53
2023/04/14 08:51:35;;;;;;;8.45;1.50;;;9.90;99.90;;;9.31;89.92;96528.50;5041031;22;20259;-42
2023/04/14 08:54:05;;;;;;;6.45;1.85;;;9.90;99.90;;;9.41;84.19;96528.97;5030508;28;20059;-38
2023/04/14 08:56:37;;;;;;;6.97;1.73;;;9.90;99.90;;;9.46;85.80;96521.72;5017893;28;20032;-39
2023/04/14 08:59:09;;;;;;;5.25;1.30;;;10.00;99.90;;;9.47;83.87;96529.50;5026487;28;20218;-39
2023/04/14 09:01:36;;;;;;;7.10;1.80;;;10.00;99.90;;;9.39;85.41;96536.94;5032374;28;20139;-40
2023/04/14 09:04:03;;;;;;;8.95;1.30;;;10.00;99.90;;;9.23;83.06;96525.41;5015760;28;20033;-41
2023/04/14 09:06:29;;;;;;;6.38;1.65;;;9.90;99.90;;;9.39;86.09;96525.56;5033584;28;20534;-40
2023/04/14 09:08:55;;;;;;;10.45;1.60;;;9.90;99.90;;;9.51;83.49;96533.72;5028057;28;20036;-39
2023/04/14 09:11:22;;;;;;;7.25;1.58;;;10.00;99.90;;;9.49;87.42;96505.75;5006315;28;20047;-40
2023/04/14 09:13:49;;;;;;;11.27;1.58;;;10.10;99.90;;;9.62;80.13;96535.84;5037908;28;20078;-39
2023/04/14 09:16:15;;;;;;;5.72;1.58;;;10.20;99.90;;;9.48;80.20;96510.19;5041186;28;20043;-39
2023/04/14 09:18:41;;;;;;;10.80;1.58;;;10.20;99.90;;;9.69;79.16;96523.25;5016238;28;20144;-39
2023/04/14 09:21:09;;;;;;;5.32;1.50;;;10.30;99.90;;;9.63;80.77;96524.38;5031436;28;20032;-39
2023/04/14 09:23:36;;;;;;;6.45;1.60;;;10.30;99.90;;;9.54;74.44;96530.09;5024655;28;20028;-38
2023/04/14 09:26:02;;;;;;;9.05;1.70;;;10.20;99.90;;;9.57;76.02;96529.94;5047818;28;20645;-39
2023/04/14 09:28:27;;;;;;;6.43;1.30;;;10.20;99.90;;;9.54;77.11;96527.44;5034229;28;20040;-41
2023/04/14 09:30:55;;;;;;;3.30;1.30;;;10.20;99.90;;;9.64;80.77;96520.84;5041081;28;20109;-41
2023/04/14 09:33:22;;;;;;;6.25;1.60;;;10.20;99.90;;;9.82;79.83;96528.81;5034771;28;20028;-41
2023/04/14 09:35:50;;;;;;;4.40;1.30;;;10.40;99.90;;;10.04;72.30;96528.63;5011347;28;20338;-41
2023/04/14 09:38:37;;;;;;;5.60;1.67;;;10.50;99.90;;;10.12;76.46;96529.94;5031918;28;20619;-42
2023/04/14 09:41:05;;;;;;;5.50;1.70;;;10.60;99.90;;;10.25;78.01;96531.97;5032189;28;20389;-41
2023/04/14 09:43:31;;;;;;;6.72;1.60;;;10.80;99.90;;;10.26;70.59;96528.41;5031771;28;20033;-41
2023/04/14 09:46:04;;;;;;;8.00;1.67;;;10.80;99.90;;;10.23;65.11;96528.53;5031108;28;20772;-41
2023/04/14 09:48:30;;;;;;;9.43;1.50;;;10.80;99.90;;;9.95;60.29;96535.16;5037406;28;20039;-41
2023/04/14 09:51:05;;;;;;;6.38;1.77;;;10.60;99.90;;;9.66;66.84;96532.16;5032640;28;20044;-40
2023/04/14 09:53:41;;;;;;;7.07;1.50;;;10.30;99.90;;;9.44;65.56;96528.78;5032523;28;20484;-40
2023/04/14 09:56:11;;;;;;;6.38;1.60;;;10.10;99.90;;;9.40;67.09;96520.19;5022626;28;20293;-40
2023/04/14 09:58:42;;;;;;;10.35;1.70;;;10.00;99.90;;;9.69;69.85;96529.38;5028456;28;20511;-41
2023/04/14 10:01:16;;;;;;;6.10;2.00;;;10.20;99.90;;;9.85;62.60;96523.38;5029743;28;20473;-40
2023/04/14 10:03:47;;;;;;;7.38;1.50;;;10.40;99.90;;;10.06;65.11;96521.47;5031824;28;20036;-41
2023/04/14 10:06:16;;;;;;;8.60;1.63;;;10.60;99.90;;;10.39;67.47;96520.75;5030533;28;20405;-40
2023/04/14 10:08:47;;;;;;;8.48;1.85;;;10.70;99.90;;;10.52;65.07;96518.38;5033050;28;20036;-40
2023/04/14 10:11:17;;;;;;;4.33;1.50;;;11.00;99.90;;;10.58;56.80;96520.69;5030003;28;20077;-41
2023/04/14 10:13:46;;;;;;;6.78;1.65;;;11.10;99.90;;;10.45;55.68;96512.56;5034975;28;20523;-40
2023/04/14 10:16:12;;;;;;;6.30;1.58;;;11.10;99.90;;;10.45;56.84;96516.03;5039820;28;20049;-40
2023/04/14 10:18:37;;;;;;;7.10;1.48;;;11.10;99.90;;;10.44;55.64;96506.41;5041165;28;20032;-40
2023/04/14 10:21:04;;;;;;;3.40;1.20;;;11.00;99.90;;;10.63;58.55;96505.50;5049932;28;20035;-40
2023/04/14 10:23:31;;;;;;;4.20;1.42;;;11.10;99.90;;;10.87;55.24;96498.97;5030482;28;20540;-40
2023/04/14 10:25:57;;;;;;;4.95;1.33;;;11.30;99.90;;;10.89;56.52;96496.22;5053217;28;20432;-41
2023/04/14 10:28:24;;;;;;;10.43;1.92;;;11.40;99.90;;;10.65;55.53;96464.09;5042721;28;20032;-40
2023/04/14 10:30:52;;;;;;;6.18;1.40;;;11.40;99.90;;;10.98;57.31;96498.41;5042245;28;20298;-40